METAR Data
IDs: Format: Raw Decoded Include TAF

Data at: 1053 UTC 26 Sep 2018

KUNI 261035Z AUTO 21005KT 10SM BKN011 OVC016 22/22 A2995 RMK AO2 P0001 T02150215
KUNI 261015Z AUTO 20003KT 10SM BKN009 OVC014 22/22 A2995 RMK AO2 P0001 T02150215
KUNI 260955Z AUTO 20003KT 10SM BKN011 OVC016 21/21 A2994 RMK AO2 LTG DSNT NE T02140214
KUNI 260935Z AUTO 21003KT 10SM OVC011 22/22 A2994 RMK AO2 T02150215
KUNI 260915Z AUTO 21003KT 10SM SCT006 OVC014 21/21 A2994 RMK AO2 T02130213
KUNI 260855Z AUTO 20003KT 10SM SCT007 OVC014 21/21 A2995 RMK AO2 T02130213
KUNI 260835Z AUTO 18005KT 10SM -RA BKN018 OVC022 21/21 A2996 RMK AO2 T02130213
KUNI 260815Z AUTO 18005KT 10SM -RA SCT006 SCT024 BKN095 21/21 A2996 RMK AO2 T02130213
KUNI 260755Z AUTO 19004KT 10SM -RA SCT014 SCT033 SCT080 21/21 A2996 RMK AO2 T02130213
KUNI 260735Z AUTO 19003KT 10SM -RA SCT016 BKN050 BKN080 22/22 A2997 RMK AO2 LTG DSNT NE T02150215
KUNI 260715Z AUTO 21006KT 7SM -RA SCT021 BKN046 OVC100 22/22 A2998 RMK AO2 LTG DSNT SW T02150215
KUNI 260655Z AUTO 20004KT 10SM -RA SCT017 BKN033 OVC044 22/22 A2999 RMK AO2 T02180218
KUNI 260635Z AUTO 20003KT 10SM SCT033 BKN041 OVC050 22/22 A2999 RMK AO2 T02210220
KUNI 260615Z AUTO 17007KT 10SM SCT043 OVC050 22/22 A2999 RMK AO2 LTG DSNT NW T02220218
KUNI 260555Z AUTO 19005KT 10SM SCT043 OVC050 22/22 A2999 RMK AO2 LTG DSNT N T02220217 10231 20212
KUNI 260535Z AUTO 19006KT 10SM SCT023 OVC055 22/22 A2999 RMK AO2 T02230217
KUNI 260515Z AUTO 17004KT 10SM SCT025 OVC060 22/22 A3000 RMK AO2 T02160216
KUNI 260455Z AUTO 16003KT 10SM SCT025 BKN031 OVC060 22/22 A3000 RMK AO2 LTG DSNT SW T02150215
KUNI 260435Z AUTO 00000KT 10SM SCT030 BKN035 OVC060 21/21 A3001 RMK AO2 T02130213
KUNI 260415Z AUTO 00000KT 10SM BKN047 OVC060 22/22 A3001 RMK AO2 LTG DSNT SW T02200218
KUNI 260355Z AUTO 00000KT 10SM BKN047 BKN050 OVC065 22/22 A3002 RMK AO2 T02190216 402550185
KUNI 260335Z AUTO 00000KT 10SM SCT045 SCT065 BKN080 22/22 A3002 RMK AO2 T02230216
KUNI 260315Z AUTO 18004KT 10SM SCT041 22/22 A3002 RMK AO2 T02230218
KUNI 260255Z AUTO 20003KT 10SM SCT041 SCT060 22/22 A3002 RMK AO2 T02230219
KUNI 260235Z AUTO 17004KT 10SM SCT070 23/22 A3000 RMK AO2 T02250219
KUNI 260215Z AUTO 17004KT 10SM SCT049 BKN070 23/22 A3001 RMK AO2 T02260218
KUNI 260155Z AUTO 18004KT 10SM SCT035 SCT041 BKN048 23/22 A3002 RMK AO2 LTG DSNT SW T02270216
KUNI 260135Z AUTO 19003KT 10SM SCT039 SCT048 23/22 A3002 RMK AO2 T02260217
KUNI 260115Z AUTO 15004KT 10SM SCT039 SCT048 BKN110 23/22 A3001 RMK AO2 T02290218
KUNI 260055Z AUTO 18006KT 10SM SCT110 23/22 A3002 RMK AO2 LTG DSNT NW T02300217
KUNI 260035Z AUTO 17006KT 10SM SCT110 23/22 A3001 RMK AO2 T02290220
KUNI 260015Z AUTO 16006KT 10SM SCT060 SCT090 SCT120 23/22 A3001 RMK AO2 LTG DSNT N T02300220
KUNI 252355Z AUTO 16007KT 10SM SCT060 SCT090 BKN110 23/22 A3002 RMK AO2 LTG DSNT W T02310222 10255 20219
KUNI 252335Z AUTO 17004KT 10SM CLR 23/23 A3002 RMK AO2 LTG DSNT W T02300225
KUNI 252315Z AUTO 17003KT 10SM SCT120 23/23 A3002 RMK AO2 T02330225
KUNI 252255Z AUTO 17004KT 10SM SCT120 24/23 A3002 RMK AO2 T02360225
KUNI 252235Z AUTO 19004KT 10SM CLR 24/22 A3002 RMK AO2 T02380223
KUNI 252215Z AUTO 19005KT 10SM CLR 24/22 A3001 RMK AO2 T02410220
KUNI 252155Z AUTO 18006KT 10SM SCT022 25/22 A3001 RMK AO2 LTG DSNT W T02450220
KUNI 252135Z AUTO 18007KT 10SM SCT024 25/22 A3002 RMK AO2 LTG DSNT E T02470220
KUNI 252115Z AUTO 19005G14KT 10SM BKN024 BKN028 25/22 A3002 RMK AO2 T02480219
KUNI 252055Z AUTO 20008KT 10SM SCT022 BKN026 SCT031 26/22 A3002 RMK AO2 LTG DSNT W T02550222
KUNI 252035Z AUTO 18007G14KT 10SM SCT020 BKN026 BKN031 25/22 A3003 RMK AO2 T02480219
KUNI 252015Z AUTO 17007KT 10SM SCT018 SCT023 25/22 A3004 RMK AO2 LTG DSNT SE T02510224
KUNI 251955Z AUTO 16007KT 10SM SCT014 SCT023 24/23 A3006 RMK AO2 LTG DSNT W T02400226
KUNI 251935Z AUTO 18006KT 10SM SCT012 SCT017 24/23 A3007 RMK AO2 T02410225
KUNI 251915Z AUTO 15005KT 10SM SCT033 SCT085 SCT110 24/23 A3008 RMK AO2 T02390228
KUNI 251855Z AUTO 16005KT 10SM SCT031 BKN070 BKN085 23/23 A3009 RMK AO2 T02310230
KUNI 251835Z AUTO 18003KT 10SM SCT025 BKN030 OVC070 22/22 A3011 RMK AO2 T02230223
KUNI 251815Z AUTO 00000KT 10SM BKN025 BKN050 OVC060 22/22 A3011 RMK AO2 LTG DSNT E T02210221
KUNI 251755Z AUTO 21004KT 10SM SCT009 BKN060 OVC070 22/22 A3012 RMK AO2 T02180218 10222 20187
KUNI 251735Z AUTO 17004KT 10SM SCT020 BKN060 OVC070 21/21 A3012 RMK AO2 LTG DSNT NE E AND W T02120212
KUNI 251715Z AUTO 15005KT 3SM +RA SCT013 BKN030 OVC050 21/21 A3011 RMK AO2 LTG DSNT N T02050205
KUNI 251655Z AUTO 00000KT 5SM -RA SCT011 BKN025 OVC032 20/20 A3012 RMK AO2 T02040204
KUNI 251635Z AUTO 00000KT 7SM -RA SCT010 BKN018 OVC030 20/20 A3013 RMK AO2 LTG DSNT NE AND NW T02030203
KUNI 251615Z AUTO 19004KT 4SM +RA SCT015 BKN024 OVC037 21/21 A3013 RMK AO2 T02090209
KUNI 251555Z AUTO 17006KT 10SM SCT016 OVC041 22/21 A3012 RMK AO2 LTG DSNT N AND W T02150210
KUNI 251535Z AUTO 18006KT 10SM SCT010 SCT017 OVC041 22/21 A3012 RMK AO2 T02210214
KUNI 251515Z AUTO 20003KT 10SM SCT008 BKN028 OVC039 22/21 A3013 RMK AO2 LTG DSNT W T02150212
KUNI 251455Z AUTO 20003KT 10SM SCT008 BKN030 OVC037 21/21 A3014 RMK AO2 T02070207
KUNI 251435Z AUTO 18005KT 10SM SCT006 BKN030 OVC035 20/20 A3013 RMK AO2 T02030203
KUNI 251415Z AUTO 16007KT 10SM BKN030 BKN041 OVC070 20/20 A3013 RMK AO2 LTG DSNT N AND W T02010201
KUNI 251355Z AUTO 17006KT 10SM SCT008 BKN050 OVC070 20/20 A3012 RMK AO2 T02010201
KUNI 251335Z AUTO 20005KT 10SM SCT008 BKN039 OVC048 20/20 A3013 RMK AO2 LTG DSNT N AND NW T01950195
KUNI 251315Z AUTO 18005KT 10SM BKN031 OVC038 20/20 A3013 RMK AO2 T01950195
KUNI 251255Z AUTO 18004KT 10SM OVC031 19/19 A3012 RMK AO2 LTG DSNT W T01940194
KUNI 251235Z AUTO 18003KT 10SM OVC033 19/19 A3012 RMK AO2 T01900190
KUNI 251215Z AUTO 17004KT 10SM OVC033 19/19 A3012 RMK AO2 LTG DSNT NW T01900190
KUNI 251155Z AUTO 17004KT 10SM BKN033 OVC090 19/19 A3012 RMK AO2 LTG DSNT NW 70001 T01870187 10189 20185
KUNI 251135Z AUTO 17004KT 10SM SCT036 SCT080 BKN090 19/19 A3012 RMK AO2 T01850185
KUNI 251115Z AUTO 16005KT 10SM SCT036 SCT050 BKN070 19/19 A3011 RMK AO2 T01860186
KUNI 251055Z AUTO 17004KT 10SM SCT050 BKN070 OVC090 19/19 A3012 RMK AO2 LTG DSNT NW T01880188
KUNI 251035Z AUTO 00000KT 10SM SCT033 SCT045 OVC080 19/19 A3012 RMK AO2 LTG DSNT W AND NW T01880188
KUNI 251015Z AUTO 00000KT 10SM SCT009 BKN034 OVC080 19/19 A3011 RMK AO2 T01880188
KUNI 250955Z AUTO 16005KT 10SM RA SCT007 SCT010 OVC036 19/19 A3011 RMK AO2 LTG DSNT W AND NW T01880188
KUNI 250935Z AUTO 18003KT 10SM SCT008 BKN012 OVC038 19/19 A3011 RMK AO2 LTG DSNT W T01880188
KUNI 250915Z AUTO 18004KT 10SM -RA SCT007 BKN033 OVC038 19/19 A3010 RMK AO2 LTG DSNT W T01870187
KUNI 250855Z AUTO 17005KT 10SM -RA SCT009 BKN036 OVC041 19/19 A3011 RMK AO2 T01870187
KUNI 250835Z AUTO 17006KT 5SM RA SCT011 BKN033 OVC041 19/19 A3010 RMK AO2 LTG DSNT NW T01860186
KUNI 250815Z AUTO 16003KT 10SM BKN025 BKN033 OVC047 19/19 A3011 RMK AO2 T01880188
KUNI 250755Z AUTO 16004KT 10SM BKN031 OVC037 19/19 A3011 RMK AO2 T01870187
KUNI 250735Z AUTO 16003KT 10SM BKN038 OVC050 19/19 A3011 RMK AO2 T01870187
KUNI 250715Z AUTO 15003KT 10SM SCT040 BKN046 OVC120 19/19 A3011 RMK AO2 LTG DSNT W T01870187
KUNI 250655Z AUTO 15004KT 10SM SCT039 BKN045 OVC080 19/19 A3011 RMK AO2 T01870187
KUNI 250635Z AUTO 13004KT 7SM RA SCT028 BKN040 OVC060 19/19 A3011 RMK AO2 LTG DSNT W T01860186
KUNI 250615Z AUTO 00000KT 10SM SCT041 BKN047 BKN060 19/19 A3012 RMK AO2 T01870187
KUNI 250555Z AUTO 14003KT 10SM SCT046 BKN110 19/19 A3011 RMK AO2 60001 T01870187 10196 20186
KUNI 250535Z AUTO 14003KT 10SM BKN046 BKN075 BKN085 19/19 A3012 RMK AO2 T01870187
KUNI 250515Z AUTO 12003KT 10SM RA SCT019 BKN039 OVC080 19/19 A3012 RMK AO2 T01860186
KUNI 250455Z AUTO 00000KT 4SM +RA SCT017 SCT033 OVC044 19/19 A3013 RMK AO2 P0001 T01870187
KUNI 250435Z AUTO 14005KT 7SM RA SCT033 BKN049 OVC065 19/19 A3014 RMK AO2 P0001 T01870187
KUNI 250415Z AUTO 14003KT 5SM +RA SCT031 BKN050 OVC065 19/19 A3014 RMK AO2 P0001 T01880188
KUNI 250355Z AUTO 15004KT 10SM DZ SCT041 OVC050 19/19 A3014 RMK AO2 T01880188 402120166
KUNI 250335Z AUTO 15003KT 10SM -RA SCT041 BKN048 OVC050 19/19 A3013 RMK AO2 T01880188
KUNI 250315Z AUTO 14004KT 7SM RA SCT016 BKN048 OVC050 19/19 A3013 RMK AO2 T01900190
KUNI 250255Z AUTO 13005KT 10SM SCT010 SCT040 OVC047 19/19 A3013 RMK AO2 T01900190
KUNI 250235Z AUTO 14005KT 10SM RA SCT010 BKN038 OVC050 19/19 A3013 RMK AO2 T01900190
KUNI 250215Z AUTO 14004KT 10SM RA SCT035 BKN041 OVC050 19/19 A3013 RMK AO2 T01900190
KUNI 250155Z AUTO 12006KT 5SM RA SCT012 BKN042 OVC050 19/19 A3013 RMK AO2 T01900190
KUNI 250135Z AUTO 13006KT 5SM +RA SCT008 BKN039 OVC050 19/19 A3013 RMK AO2 T01910191
KUNI 250115Z AUTO 14004KT 7SM RA SCT041 BKN050 OVC065 19/19 A3013 RMK AO2 T01920192
KUNI 250055Z AUTO 14005KT 10SM -RA BKN075 OVC080 19/19 A3012 RMK AO2 T01940194
KUNI 250035Z AUTO 13004KT 10SM -RA OVC075 20/20 A3012 RMK AO2 T01950195
KUNI 250015Z AUTO 12004KT 10SM OVC075 20/20 A3012 RMK AO2 T01960196
KUNI 242355Z AUTO 13003KT 10SM RA SCT055 BKN085 OVC110 20/20 A3012 RMK AO2 T01970197 10212 20197
KUNI 242335Z AUTO 14005KT 10SM -RA SCT034 BKN044 OVC110 20/20 A3012 RMK AO2 T02000200
KUNI 242315Z AUTO 14004KT 10SM -RA SCT035 BKN042 BKN049 20/20 A3012 RMK AO2 T02000200
KUNI 242255Z AUTO 13004KT 10SM -RA SCT020 SCT026 BKN039 20/20 A3012 RMK AO2 T02020202